createdAt,value
2018-09-12T00:02:08.840Z,2.70
2018-09-12T00:04:36.918Z,2.80
2018-09-12T00:07:04.992Z,2.50
2018-09-12T00:09:33.039Z,3.00
2018-09-12T00:12:01.120Z,2.30
2018-09-12T00:14:29.225Z,3.07
2018-09-12T00:16:58.169Z,2.40
2018-09-12T00:19:26.541Z,2.80
2018-09-12T00:21:54.657Z,2.53
2018-09-12T00:24:22.732Z,2.50
2018-09-12T00:26:50.868Z,2.20
2018-09-12T00:29:18.997Z,2.57
2018-09-12T00:31:47.044Z,2.60
2018-09-12T00:34:15.105Z,2.57
2018-09-12T00:36:43.167Z,2.50
2018-09-12T00:39:12.281Z,2.80
2018-09-12T00:41:40.428Z,2.40
2018-09-12T00:44:08.985Z,2.40
2018-09-12T00:46:37.056Z,2.30
2018-09-12T00:49:05.460Z,2.23
2018-09-12T00:51:33.530Z,2.40
2018-09-12T00:54:01.613Z,2.30
2018-09-12T00:56:29.776Z,2.67
2018-09-12T00:58:57.881Z,2.53
2018-09-12T01:01:25.966Z,2.30
2018-09-12T01:03:54.052Z,2.20
2018-09-12T01:06:22.123Z,2.23
2018-09-12T01:08:50.531Z,2.27
2018-09-12T01:11:18.610Z,2.20
2018-09-12T01:13:46.691Z,2.37
2018-09-12T01:16:14.774Z,2.27
2018-09-12T01:18:42.984Z,2.50
2018-09-12T01:21:11.080Z,2.40
2018-09-12T01:23:39.225Z,2.57
2018-09-12T01:26:07.308Z,2.50
2018-09-12T01:28:35.371Z,2.13
2018-09-12T01:31:03.486Z,2.47
2018-09-12T01:33:31.565Z,2.57
2018-09-12T01:35:59.651Z,2.50
2018-09-12T01:38:27.702Z,2.20
2018-09-12T01:40:55.934Z,2.20
2018-09-12T01:43:24.056Z,2.67
2018-09-12T01:45:52.365Z,2.67
2018-09-12T01:48:20.524Z,2.60
2018-09-12T01:50:48.714Z,2.33
2018-09-12T01:53:16.805Z,2.33
2018-09-12T01:55:44.897Z,2.40
2018-09-12T01:58:12.977Z,2.63
2018-09-12T02:00:42.158Z,2.23
2018-09-12T02:03:10.715Z,2.70
2018-09-12T02:05:45.495Z,2.50
2018-09-12T02:08:13.571Z,2.30
2018-09-12T02:10:41.625Z,2.33
2018-09-12T02:13:09.773Z,2.80
2018-09-12T02:15:37.924Z,2.47
2018-09-12T02:18:06.033Z,2.43
2018-09-12T02:20:34.071Z,2.60
2018-09-12T02:23:02.194Z,2.70
2018-09-12T02:25:30.312Z,2.70
2018-09-12T02:27:58.435Z,2.57
2018-09-12T02:30:26.533Z,2.43
2018-09-12T02:32:54.661Z,3.20
2018-09-12T02:35:22.788Z,2.50
2018-09-12T02:37:50.901Z,2.53
2018-09-12T02:40:19.037Z,2.90
2018-09-12T02:42:47.147Z,2.47
2018-09-12T02:45:15.210Z,2.70
2018-09-12T02:47:43.319Z,2.60
2018-09-12T02:50:12.403Z,2.60
2018-09-12T02:52:40.679Z,2.63
2018-09-12T02:55:10.243Z,2.60
2018-09-12T02:57:38.347Z,2.73
2018-09-12T03:00:06.851Z,2.67
2018-09-12T03:02:34.942Z,2.60
2018-09-12T03:05:03.057Z,3.00
2018-09-12T03:07:31.187Z,2.70
2018-09-12T03:09:59.406Z,2.80
2018-09-12T03:12:27.503Z,2.67
2018-09-12T03:14:55.552Z,2.90
2018-09-12T03:17:23.626Z,2.50
2018-09-12T03:19:51.749Z,3.00
2018-09-12T03:22:19.918Z,3.30
2018-09-12T03:24:48.012Z,3.57
2018-09-12T03:27:16.083Z,3.80
2018-09-12T03:29:44.157Z,3.33
2018-09-12T03:32:12.218Z,3.40
2018-09-12T03:34:40.298Z,3.47
2018-09-12T03:37:08.399Z,3.43
2018-09-12T03:39:36.465Z,3.60
2018-09-12T03:42:04.584Z,3.60
2018-09-12T03:44:32.714Z,3.40
2018-09-12T03:47:00.820Z,3.67
2018-09-12T03:49:28.924Z,4.13
2018-09-12T03:51:57.009Z,3.77
2018-09-12T03:54:25.112Z,3.10
2018-09-12T03:56:53.180Z,3.33
2018-09-12T03:59:21.278Z,3.33
2018-09-12T04:01:49.357Z,3.50
2018-09-12T04:04:17.425Z,3.53
2018-09-12T04:06:45.481Z,3.53
2018-09-12T04:09:13.536Z,3.73
2018-09-12T04:11:41.743Z,3.30
2018-09-12T04:14:09.848Z,3.83
2018-09-12T04:16:38.062Z,3.90
2018-09-12T04:19:06.175Z,3.63
2018-09-12T04:21:34.258Z,3.67
2018-09-12T04:24:02.408Z,3.63
2018-09-12T04:26:30.496Z,3.80
2018-09-12T04:28:58.633Z,3.87
2018-09-12T04:31:26.747Z,4.10
2018-09-12T04:33:54.868Z,3.47
2018-09-12T04:36:22.919Z,3.77
2018-09-12T04:38:50.995Z,3.93
2018-09-12T04:41:19.085Z,3.97
2018-09-12T04:43:47.130Z,3.73
2018-09-12T04:46:15.201Z,3.80
2018-09-12T04:48:43.266Z,3.50
2018-09-12T04:51:11.338Z,3.60
2018-09-12T04:53:39.398Z,3.50
2018-09-12T04:56:07.472Z,4.87
2018-09-12T04:58:35.711Z,3.60
2018-09-12T05:01:03.761Z,3.37
2018-09-12T05:03:31.802Z,3.43
2018-09-12T05:05:59.869Z,3.60
2018-09-12T05:08:27.950Z,3.70
2018-09-12T05:10:56.052Z,3.73
2018-09-12T05:13:24.124Z,5.53
2018-09-12T05:15:52.308Z,3.60
2018-09-12T05:18:20.341Z,3.80
2018-09-12T05:20:48.411Z,3.30
2018-09-12T05:23:16.521Z,3.67
2018-09-12T05:25:44.584Z,3.27
2018-09-12T05:28:12.677Z,3.70
2018-09-12T05:30:40.880Z,3.50
2018-09-12T05:33:08.992Z,3.37
2018-09-12T05:35:37.029Z,3.37
2018-09-12T05:38:05.073Z,3.53
2018-09-12T05:40:33.223Z,3.30
2018-09-12T05:43:01.288Z,3.60
2018-09-12T05:45:29.371Z,3.53
2018-09-12T05:47:57.486Z,3.17
2018-09-12T05:50:25.651Z,3.43
2018-09-12T05:52:53.899Z,3.67
2018-09-12T05:55:22.027Z,3.90
2018-09-12T05:57:50.103Z,3.87
2018-09-12T06:00:20.701Z,2.90
2018-09-12T06:02:48.845Z,3.40
2018-09-12T06:05:17.370Z,3.60
2018-09-12T06:07:45.440Z,3.10
2018-09-12T06:10:13.556Z,3.10
2018-09-12T06:12:41.746Z,3.60
2018-09-12T06:15:09.816Z,3.17
2018-09-12T06:17:37.904Z,3.60
2018-09-12T06:20:06.291Z,3.73
2018-09-12T06:22:34.364Z,3.33
2018-09-12T06:25:02.439Z,3.33
2018-09-12T06:27:30.715Z,3.00
2018-09-12T06:29:58.804Z,3.20
2018-09-12T06:32:26.896Z,3.23
2018-09-12T06:34:55.010Z,3.20
2018-09-12T06:37:23.103Z,3.90
2018-09-12T06:39:51.182Z,3.50
2018-09-12T06:42:19.297Z,3.30
2018-09-12T06:44:47.413Z,3.80
2018-09-12T06:47:15.483Z,3.67
2018-09-12T06:49:46.739Z,3.70
2018-09-12T06:52:15.676Z,3.47
2018-09-12T06:54:43.796Z,3.10
2018-09-12T06:57:11.826Z,3.53
2018-09-12T06:59:39.892Z,3.17
2018-09-12T07:02:08.020Z,3.27
2018-09-12T07:04:36.173Z,3.20
2018-09-12T07:07:04.258Z,3.43
2018-09-12T07:09:32.328Z,3.30
2018-09-12T07:12:00.374Z,3.97
2018-09-12T07:14:28.465Z,3.33
2018-09-12T07:16:56.592Z,3.03
2018-09-12T07:19:24.680Z,3.03
2018-09-12T07:21:52.846Z,3.27
2018-09-12T07:24:20.953Z,3.03
2018-09-12T07:26:48.986Z,2.87
2018-09-12T07:29:17.034Z,2.83
2018-09-12T07:31:45.118Z,2.97
2018-09-12T07:34:13.183Z,3.17
2018-09-12T07:36:41.276Z,3.10
2018-09-12T07:39:11.072Z,3.17
2018-09-12T07:41:40.257Z,3.10
2018-09-12T07:44:08.462Z,2.73
2018-09-12T07:46:36.967Z,2.93
2018-09-12T07:49:05.880Z,3.33
2018-09-12T07:51:34.043Z,3.27
2018-09-12T07:54:02.121Z,3.00
2018-09-12T07:56:30.276Z,3.10
2018-09-12T07:58:58.315Z,2.83
2018-09-12T08:01:26.513Z,2.93
2018-09-12T08:03:54.575Z,3.10
2018-09-12T08:06:22.684Z,3.07
2018-09-12T08:08:50.799Z,2.97
2018-09-12T08:11:18.932Z,3.27
2018-09-12T08:13:46.999Z,3.17
2018-09-12T08:16:15.069Z,3.17
2018-09-12T08:18:43.143Z,3.30
2018-09-12T08:21:11.810Z,3.10
2018-09-12T08:23:40.232Z,3.20
2018-09-12T08:26:08.588Z,3.13
2018-09-12T08:28:36.623Z,3.10
2018-09-12T08:31:04.698Z,3.70
2018-09-12T08:33:32.785Z,3.10
2018-09-12T08:36:00.918Z,3.00
2018-09-12T08:38:29.089Z,2.80
2018-09-12T08:40:57.160Z,2.93
2018-09-12T08:43:25.260Z,3.10
2018-09-12T08:45:53.331Z,3.13
2018-09-12T08:48:21.379Z,2.90
2018-09-12T08:50:50.298Z,2.80
2018-09-12T08:53:18.905Z,3.23
2018-09-12T08:55:47.873Z,2.87
2018-09-12T08:58:16.011Z,2.90
2018-09-12T09:00:44.493Z,3.00
2018-09-12T09:03:12.640Z,2.60
2018-09-12T09:05:40.721Z,2.50
2018-09-12T09:08:08.792Z,2.87
2018-09-12T09:10:36.944Z,2.57
2018-09-12T09:13:04.989Z,2.60
2018-09-12T09:15:33.094Z,2.77
2018-09-12T09:18:01.214Z,2.67
2018-09-12T09:20:29.296Z,2.67
2018-09-12T09:22:57.396Z,2.70
2018-09-12T09:25:25.477Z,2.70
2018-09-12T09:27:53.574Z,2.83
2018-09-12T09:30:22.008Z,2.73
2018-09-12T09:32:50.066Z,2.70
2018-09-12T09:35:18.259Z,3.10
2018-09-12T09:37:46.358Z,2.70
2018-09-12T09:40:14.410Z,2.50
2018-09-12T09:42:42.552Z,2.53
2018-09-12T09:45:10.908Z,2.93
2018-09-12T09:47:39.008Z,2.63
2018-09-12T09:50:07.085Z,2.60
2018-09-12T09:52:35.175Z,2.40
2018-09-12T09:55:03.323Z,2.37
2018-09-12T09:57:31.370Z,2.30
2018-09-12T09:59:59.510Z,2.50
2018-09-12T10:02:33.057Z,2.83
2018-09-12T10:05:02.916Z,2.10
2018-09-12T10:07:36.383Z,2.40
2018-09-12T10:10:05.488Z,2.23
2018-09-12T10:12:34.268Z,2.00
2018-09-12T10:15:03.319Z,2.17
2018-09-12T10:17:31.727Z,2.10
2018-09-12T10:20:00.086Z,2.23
2018-09-12T10:22:28.198Z,2.30
2018-09-12T10:24:56.384Z,2.20
2018-09-12T10:27:24.575Z,2.33
2018-09-12T10:29:52.644Z,2.60
2018-09-12T10:32:20.715Z,2.10
2018-09-12T10:34:48.886Z,2.27
2018-09-12T10:37:17.834Z,2.20
2018-09-12T10:39:45.987Z,2.10
2018-09-12T10:42:14.099Z,2.30
2018-09-12T10:44:42.644Z,2.37
2018-09-12T10:47:10.721Z,2.30
2018-09-12T10:49:38.804Z,5.07
2018-09-12T10:52:06.889Z,2.10
2018-09-12T10:54:35.148Z,2.37
2018-09-12T10:57:03.223Z,2.30
2018-09-12T10:59:31.293Z,2.30
2018-09-12T11:01:59.352Z,2.00
2018-09-12T11:04:27.554Z,2.10
2018-09-12T11:06:55.576Z,1.90
2018-09-12T11:09:23.623Z,1.80
2018-09-12T11:11:51.658Z,1.97
2018-09-12T11:14:19.745Z,1.80
2018-09-12T11:16:47.854Z,1.50
2018-09-12T11:19:15.949Z,1.60
2018-09-12T11:21:44.136Z,1.90
2018-09-12T11:24:12.248Z,1.87
2018-09-12T11:26:40.348Z,1.70
2018-09-12T11:29:08.414Z,2.07
2018-09-12T11:31:36.584Z,1.70
2018-09-12T11:34:04.810Z,1.90
2018-09-12T11:36:32.918Z,1.60
2018-09-12T11:39:00.961Z,1.63
2018-09-12T11:41:29.046Z,1.70
2018-09-12T11:43:57.148Z,1.90
2018-09-12T11:46:25.301Z,2.17
2018-09-12T11:48:53.397Z,1.90
2018-09-12T11:51:21.447Z,1.97
2018-09-12T11:53:49.502Z,1.90
2018-09-12T11:56:17.597Z,2.00
2018-09-12T11:58:45.673Z,1.80
2018-09-12T12:01:13.714Z,2.70
2018-09-12T12:03:41.819Z,2.13
2018-09-12T12:06:09.938Z,1.90
2018-09-12T12:08:37.977Z,1.87
2018-09-12T12:11:06.146Z,1.80
2018-09-12T12:13:34.260Z,1.80
2018-09-12T12:16:02.319Z,1.90
2018-09-12T12:18:30.424Z,1.80
2018-09-12T12:20:58.490Z,2.15
2018-09-12T12:23:26.588Z,1.80
2018-09-12T12:25:54.677Z,2.30
2018-09-12T12:28:22.757Z,1.90
2018-09-12T12:30:50.873Z,1.87
2018-09-12T12:33:18.979Z,2.10
2018-09-12T12:35:47.043Z,2.00
2018-09-12T12:38:15.271Z,2.20
2018-09-12T12:40:43.374Z,2.30
2018-09-12T12:43:11.508Z,1.97
2018-09-12T12:45:39.575Z,2.00
2018-09-12T12:48:07.661Z,1.90
2018-09-12T12:50:35.767Z,2.53
2018-09-12T12:53:03.830Z,2.10
2018-09-12T12:55:31.907Z,2.07
2018-09-12T12:57:59.996Z,2.30
2018-09-12T13:00:28.085Z,2.30
2018-09-12T13:02:56.178Z,2.20
2018-09-12T13:05:24.209Z,2.50
2018-09-12T13:07:52.329Z,2.10
2018-09-12T13:10:20.408Z,1.63
2018-09-12T13:12:48.461Z,1.83
2018-09-12T13:15:16.516Z,1.90
2018-09-12T13:17:44.761Z,2.07
2018-09-12T13:20:12.879Z,2.60
2018-09-12T13:22:40.946Z,2.40
2018-09-12T13:25:09.003Z,1.90
2018-09-12T13:27:37.134Z,2.10
2018-09-12T13:30:05.573Z,2.93
2018-09-12T13:32:33.712Z,2.00
2018-09-12T13:35:01.897Z,2.30
2018-09-12T13:37:29.992Z,2.30
2018-09-12T13:39:58.067Z,2.37
2018-09-12T13:42:26.223Z,2.20
2018-09-12T13:44:54.304Z,2.13
2018-09-12T13:47:22.356Z,2.30
2018-09-12T13:49:50.406Z,2.03
2018-09-12T13:52:18.496Z,2.40
2018-09-12T13:54:46.590Z,2.30
2018-09-12T13:57:14.706Z,2.20
2018-09-12T13:59:42.801Z,2.97
2018-09-12T14:02:11.306Z,2.30
2018-09-12T14:04:39.408Z,2.00
2018-09-12T14:07:07.497Z,2.40
2018-09-12T14:09:35.554Z,4.20
2018-09-12T14:12:04.295Z,3.17
2018-09-12T14:14:32.414Z,3.07
2018-09-12T14:17:00.497Z,2.90
2018-09-12T14:19:28.605Z,2.60
2018-09-12T14:21:56.681Z,2.30
2018-09-12T14:24:24.742Z,2.40
2018-09-12T14:26:52.845Z,2.70
2018-09-12T14:29:20.953Z,2.67
2018-09-12T14:31:49.089Z,2.77
2018-09-12T14:34:17.155Z,2.80
2018-09-12T14:36:45.282Z,2.63
2018-09-12T14:39:13.485Z,2.30
2018-09-12T14:41:41.479Z,2.50
2018-09-12T14:44:09.557Z,2.53
2018-09-12T14:46:37.666Z,2.97
2018-09-12T14:49:05.734Z,3.17
2018-09-12T14:51:33.814Z,2.63
2018-09-12T14:54:01.928Z,3.23
2018-09-12T14:56:30.058Z,2.80
2018-09-12T14:58:58.178Z,3.20
2018-09-12T15:01:26.290Z,3.17
2018-09-12T15:03:54.366Z,3.00
2018-09-12T15:06:22.468Z,3.20
2018-09-12T15:08:50.552Z,3.40
2018-09-12T15:11:18.623Z,3.30
2018-09-12T15:13:46.700Z,3.30
2018-09-12T15:16:14.855Z,3.83
2018-09-12T15:18:43.051Z,3.60
2018-09-12T15:21:11.171Z,3.60
2018-09-12T15:23:39.333Z,3.87
2018-09-12T15:26:07.407Z,4.13
2018-09-12T15:28:35.497Z,4.47
2018-09-12T15:31:03.615Z,3.80
2018-09-12T15:33:31.685Z,3.20
2018-09-12T15:35:59.819Z,3.40
2018-09-12T15:38:27.917Z,3.20
2018-09-12T15:40:55.996Z,3.40
2018-09-12T15:43:24.290Z,3.30
2018-09-12T15:45:52.370Z,4.10
2018-09-12T15:48:20.488Z,3.40
2018-09-12T15:50:48.585Z,3.93
2018-09-12T15:53:16.691Z,3.53
2018-09-12T15:55:44.868Z,3.60
2018-09-12T15:58:13.106Z,3.53
2018-09-12T16:00:41.197Z,3.80
2018-09-12T16:03:09.255Z,3.90
2018-09-12T16:05:37.351Z,3.50
2018-09-12T16:08:05.465Z,3.23
2018-09-12T16:10:33.920Z,3.60
2018-09-12T16:13:02.112Z,3.60
2018-09-12T16:15:30.327Z,3.60
2018-09-12T16:17:58.439Z,3.60
2018-09-12T16:20:26.663Z,3.40
2018-09-12T16:22:54.853Z,3.43
2018-09-12T16:25:22.954Z,3.63
2018-09-12T16:27:51.050Z,2.83
2018-09-12T16:30:19.257Z,3.10
2018-09-12T16:32:47.485Z,3.07
2018-09-12T16:35:15.447Z,2.63
2018-09-12T16:37:43.536Z,2.97
2018-09-12T16:40:11.729Z,3.10
2018-09-12T16:45:14.468Z,3.00
2018-09-12T16:47:42.570Z,3.77
2018-09-12T16:50:10.720Z,3.60
2018-09-12T16:52:38.823Z,3.80
2018-09-12T16:55:07.020Z,3.43
2018-09-12T16:57:35.134Z,6.10
2018-09-12T17:00:03.213Z,3.40
2018-09-12T17:02:31.336Z,3.70
2018-09-12T17:04:59.382Z,3.70
2018-09-12T17:07:27.473Z,3.60
2018-09-12T17:09:55.553Z,3.83
2018-09-12T17:12:23.621Z,3.83
2018-09-12T17:14:51.783Z,3.60
2018-09-12T17:17:19.867Z,3.87
2018-09-12T17:19:47.974Z,3.30
2018-09-12T17:22:16.154Z,3.30
2018-09-12T17:24:44.291Z,3.13
2018-09-12T17:27:12.507Z,3.43
2018-09-12T17:29:40.564Z,3.33
2018-09-12T17:32:08.773Z,3.30
2018-09-12T17:34:36.820Z,3.53
2018-09-12T17:37:04.949Z,3.10
2018-09-12T17:39:32.984Z,3.00
2018-09-12T17:42:01.075Z,3.00
2018-09-12T17:44:29.170Z,3.10
2018-09-12T17:46:57.303Z,2.67
2018-09-12T17:49:25.420Z,2.17
2018-09-12T17:51:53.506Z,2.57
2018-09-12T17:54:21.589Z,2.73
2018-09-12T17:56:49.709Z,2.60
2018-09-12T17:59:17.752Z,2.60
2018-09-12T18:01:45.892Z,2.50
2018-09-12T18:04:13.957Z,2.20
2018-09-12T18:06:43.026Z,2.23
2018-09-12T18:09:11.276Z,2.60
2018-09-12T18:11:39.335Z,2.40
2018-09-12T18:14:07.481Z,2.30
2018-09-12T18:16:35.609Z,2.50
2018-09-12T18:19:03.714Z,1.90
2018-09-12T18:21:31.901Z,1.70
2018-09-12T18:24:00.035Z,2.30
2018-09-12T18:26:28.187Z,2.27
2018-09-12T18:28:56.366Z,1.77
2018-09-12T18:31:24.490Z,2.20
2018-09-12T18:33:52.610Z,2.00
2018-09-12T18:36:20.872Z,2.00
2018-09-12T18:38:48.937Z,1.73
2018-09-12T18:41:16.994Z,1.47
2018-09-12T18:43:45.157Z,1.47
2018-09-12T18:46:13.311Z,1.20
2018-09-12T18:48:41.381Z,1.10
2018-09-12T18:51:10.486Z,1.13
2018-09-12T18:53:39.639Z,1.10
2018-09-12T18:56:07.766Z,1.00
2018-09-12T18:58:36.123Z,1.43
2018-09-12T19:01:05.956Z,1.20
2018-09-12T19:03:34.432Z,1.00
2018-09-12T19:06:02.564Z,1.37
2018-09-12T19:08:30.643Z,1.07
2018-09-12T19:10:58.735Z,1.00
2018-09-12T19:13:26.866Z,0.93
2018-09-12T19:15:54.933Z,1.13
2018-09-12T19:18:23.060Z,1.10
2018-09-12T19:20:51.182Z,1.13
2018-09-12T19:23:19.544Z,1.00
2018-09-12T19:25:47.630Z,0.90
2018-09-12T19:28:15.728Z,1.13
2018-09-12T19:30:43.845Z,0.90
2018-09-12T19:33:11.924Z,0.93
2018-09-12T19:35:39.980Z,0.93
2018-09-12T19:38:08.243Z,1.17
2018-09-12T19:40:36.311Z,1.10
2018-09-12T19:43:04.420Z,0.90
2018-09-12T19:45:32.502Z,1.00
2018-09-12T19:48:00.591Z,0.90
2018-09-12T19:50:28.681Z,1.20
2018-09-12T19:52:56.813Z,0.83
2018-09-12T19:55:25.792Z,1.00
2018-09-12T19:57:53.923Z,0.80
2018-09-12T20:00:22.056Z,1.00
2018-09-12T20:02:50.107Z,0.97
2018-09-12T20:05:18.198Z,1.00
2018-09-12T20:07:46.318Z,1.13
2018-09-12T20:10:14.509Z,1.10
2018-09-12T20:12:42.620Z,1.10
2018-09-12T20:15:10.762Z,1.00
2018-09-12T20:17:38.984Z,1.10
2018-09-12T20:20:07.093Z,1.03
2018-09-12T20:22:35.212Z,1.00
2018-09-12T20:25:03.316Z,1.10
2018-09-12T20:27:31.416Z,1.20
2018-09-12T20:29:59.552Z,0.90
2018-09-12T20:32:27.681Z,1.37
2018-09-12T20:34:55.823Z,1.27
2018-09-12T20:37:23.887Z,1.57
2018-09-12T20:39:51.984Z,1.10
2018-09-12T20:42:20.113Z,1.10
2018-09-12T20:44:48.244Z,1.20
2018-09-12T20:47:17.130Z,1.03
2018-09-12T20:49:45.257Z,1.20
2018-09-12T20:52:13.338Z,1.30
2018-09-12T20:54:41.485Z,1.20
2018-09-12T20:57:09.569Z,1.40
2018-09-12T20:59:37.717Z,1.10
2018-09-12T21:02:06.027Z,0.93
2018-09-12T21:04:34.149Z,0.97
2018-09-12T21:07:02.510Z,1.10
2018-09-12T21:09:30.683Z,1.13
2018-09-12T21:11:58.776Z,1.30
2018-09-12T21:14:26.964Z,1.03
2018-09-12T21:16:55.090Z,1.17
2018-09-12T21:19:23.207Z,1.17
2018-09-12T21:21:51.295Z,1.70
2018-09-12T21:24:19.558Z,1.17
2018-09-12T21:26:47.657Z,1.20
2018-09-12T21:29:15.747Z,1.50
2018-09-12T21:31:43.877Z,1.40
2018-09-12T21:34:12.029Z,1.50
2018-09-12T21:36:40.110Z,1.70
2018-09-12T21:39:08.807Z,1.57
2018-09-12T21:41:37.004Z,1.80
2018-09-12T21:44:05.190Z,1.60
2018-09-12T21:46:33.324Z,1.30
2018-09-12T21:49:01.402Z,1.30
2018-09-12T21:51:29.714Z,1.27
2018-09-12T21:53:57.826Z,1.30
2018-09-12T21:56:25.874Z,1.30
2018-09-12T21:58:54.255Z,1.67
2018-09-12T22:01:23.323Z,1.40
2018-09-12T22:03:52.198Z,1.60
2018-09-12T22:06:20.569Z,1.40
2018-09-12T22:08:48.690Z,1.57
2018-09-12T22:11:16.839Z,1.40
2018-09-12T22:13:44.902Z,1.77
2018-09-12T22:16:12.994Z,1.47
2018-09-12T22:18:41.084Z,1.43
2018-09-12T22:21:09.228Z,1.50
2018-09-12T22:23:37.307Z,1.50
2018-09-12T22:26:05.458Z,1.23
2018-09-12T22:28:33.706Z,1.53
2018-09-12T22:31:01.915Z,1.40
2018-09-12T22:33:30.033Z,1.53
2018-09-12T22:35:58.248Z,1.17
2018-09-12T22:38:26.324Z,1.07
2018-09-12T22:40:54.383Z,1.60
2018-09-12T22:43:22.432Z,1.20
2018-09-12T22:45:50.697Z,1.20
2018-09-12T22:48:18.800Z,1.10
2018-09-12T22:50:47.191Z,1.40
2018-09-12T22:53:15.271Z,0.90
2018-09-12T22:55:43.342Z,1.10
2018-09-12T22:58:11.515Z,1.10
2018-09-12T23:00:39.628Z,0.97
2018-09-12T23:03:07.765Z,1.13
2018-09-12T23:05:35.868Z,1.00
2018-09-12T23:08:03.948Z,0.97
2018-09-12T23:10:32.058Z,1.20
2018-09-12T23:13:00.233Z,1.07
2018-09-12T23:15:28.309Z,1.10
2018-09-12T23:17:56.347Z,0.90
2018-09-12T23:20:24.429Z,1.07
2018-09-12T23:22:52.508Z,1.00
2018-09-12T23:25:20.578Z,1.13
2018-09-12T23:27:48.855Z,1.30
2018-09-12T23:30:16.947Z,1.03
2018-09-12T23:32:45.027Z,0.90
2018-09-12T23:35:13.104Z,1.00
2018-09-12T23:37:41.183Z,1.40
2018-09-12T23:40:09.250Z,1.13
2018-09-12T23:42:37.337Z,1.50
2018-09-12T23:45:05.430Z,1.00
2018-09-12T23:47:33.599Z,1.10
2018-09-12T23:50:01.666Z,1.10
2018-09-12T23:52:29.726Z,1.30
2018-09-12T23:54:57.794Z,1.20
2018-09-12T23:57:25.908Z,1.27
2018-09-12T23:59:54.029Z,1.20
